Time;durP1;ratioP1;P1;durP2;ratioP2;P2;SDS_P1;SDS_P2;PMS_P1;PMS_P2;Temp;Humidity;BMP_temperature;BMP_pressure;BME280_temperature;BME280_humidity;BME280_pressure;Samples;Min_cycle;Max_cycle;Signal;HPM_P1;HPM_P2
2023/09/01 00:01:48;;;;;;;4.80;2.87;;;17.30;99.90;;;;;;4998349;28;20177;-87
2023/09/01 00:04:14;;;;;;;3.77;2.63;;;17.20;99.90;;;;;;4998686;28;20177;-85
2023/09/01 00:06:39;;;;;;;3.47;2.50;;;17.10;99.90;;;;;;4997147;28;20178;-85
2023/09/01 00:09:05;;;;;;;5.33;2.80;;;17.10;99.90;;;;;;5012860;28;20257;-86
2023/09/01 00:11:31;;;;;;;6.00;4.10;;;17.10;99.90;;;;;;5020639;28;20234;-86
2023/09/01 00:13:56;;;;;;;7.93;5.17;;;17.10;99.90;;;;;;5036026;28;20199;-88
2023/09/01 00:16:24;;;;;;;4.17;2.80;;;16.90;99.90;;;;;;5004705;28;20173;-86
2023/09/01 00:18:50;;;;;;;5.23;3.10;;;16.90;99.90;;;;;;5006279;28;20206;-83
2023/09/01 00:21:16;;;;;;;5.90;3.57;;;16.90;99.90;;;;;;5003662;28;20173;-84
2023/09/01 00:23:45;;;;;;;4.47;3.27;;;16.90;99.90;;;;;;4997893;28;20167;-84
2023/09/01 00:26:11;;;;;;;3.93;2.97;;;16.90;99.90;;;;;;4997531;28;20182;-84
2023/09/01 00:28:38;;;;;;;4.27;2.97;;;16.90;99.90;;;;;;4996227;28;20177;-84
2023/09/01 00:31:04;;;;;;;5.77;3.30;;;16.80;99.90;;;;;;4995922;28;20229;-88
2023/09/01 00:33:30;;;;;;;3.90;2.97;;;16.90;99.90;;;;;;4997184;28;20175;-85
2023/09/01 00:35:58;;;;;;;5.40;3.00;;;16.90;99.90;;;;;;5014491;28;20167;-84
2023/09/01 00:38:24;;;;;;;4.37;3.33;;;16.90;99.90;;;;;;4997063;28;20188;-85
2023/09/01 00:40:50;;;;;;;5.70;3.60;;;16.90;99.90;;;;;;4996911;28;20186;-85
2023/09/01 00:43:16;;;;;;;5.57;2.80;;;16.90;99.90;;;;;;5000101;28;20529;-83
2023/09/01 00:45:43;;;;;;;5.57;3.27;;;17.00;99.90;;;;;;4999192;28;20545;-84
2023/09/01 00:48:11;;;;;;;5.40;3.00;;;17.10;99.90;;;;;;5014313;28;20199;-84
2023/09/01 00:50:38;;;;;;;5.17;3.50;;;17.20;99.90;;;;;;4996933;28;20184;-84
2023/09/01 00:53:05;;;;;;;4.33;3.17;;;17.20;99.90;;;;;;4996686;28;20185;-85
2023/09/01 00:55:35;;;;;;;4.67;3.53;;;17.10;99.90;;;;;;4996285;28;20752;-85
2023/09/01 00:58:02;;;;;;;4.77;3.33;;;17.00;99.90;;;;;;4996123;28;20204;-85
2023/09/01 01:00:31;;;;;;;4.67;3.50;;;17.00;99.90;;;;;;5013203;28;20293;-84
2023/09/01 01:03:02;;;;;;;4.10;3.40;;;16.90;99.90;;;;;;4995878;28;20582;-84
2023/09/01 01:05:43;;;;;;;5.43;3.43;;;17.00;99.90;;;;;;5013249;28;20201;-84
2023/09/01 01:08:15;;;;;;;5.23;3.60;;;17.20;99.90;;;;;;4995393;28;20580;-84
2023/09/01 01:10:50;;;;;;;4.67;3.50;;;17.30;99.90;;;;;;4996224;28;20207;-84
2023/09/01 01:13:20;;;;;;;5.53;3.43;;;17.20;99.90;;;;;;4995267;28;20267;-84
2023/09/01 01:15:47;;;;;;;3.87;3.33;;;17.10;99.90;;;;;;4995873;28;20176;-83
2023/09/01 01:18:15;;;;;;;3.83;3.20;;;17.20;99.90;;;;;;4995480;28;20172;-84
2023/09/01 01:20:46;;;;;;;6.03;3.30;;;17.40;99.90;;;;;;4995173;28;20631;-85
2023/09/01 01:23:16;;;;;;;4.30;3.40;;;17.40;99.90;;;;;;4996115;28;20179;-83
2023/09/01 01:25:52;;;;;;;4.20;3.20;;;17.50;99.90;;;;;;4996372;28;20209;-84
2023/09/01 01:28:20;;;;;;;4.93;3.53;;;17.50;99.90;;;;;;4995831;28;20535;-84
2023/09/01 01:30:48;;;;;;;4.93;3.47;;;17.50;99.90;;;;;;5013125;28;20171;-83
2023/09/01 01:33:30;;;;;;;4.53;3.30;;;17.40;99.90;;;;;;5013900;28;20180;-84
2023/09/01 01:36:05;;;;;;;7.90;3.77;;;17.30;99.90;;;;;;5013160;28;20175;-85
2023/09/01 01:38:32;;;;;;;4.40;3.23;;;17.20;99.90;;;;;;4994660;28;20165;-83
2023/09/01 01:41:14;;;;;;;5.50;3.97;;;17.30;99.90;;;;;;4994985;28;20236;-84
2023/09/01 01:43:43;;;;;;;4.50;3.60;;;17.40;99.90;;;;;;5012721;28;20202;-82
2023/09/01 01:46:08;;;;;;;4.70;3.87;;;17.30;99.90;;;;;;4997002;28;20169;-83
2023/09/01 01:48:37;;;;;;;6.23;4.07;;;17.30;99.90;;;;;;5014695;28;20182;-84
2023/09/01 01:51:05;;;;;;;6.70;4.20;;;17.30;99.90;;;;;;4996206;28;20206;-83
2023/09/01 01:53:40;;;;;;;5.10;4.13;;;17.30;99.90;;;;;;4999500;28;20168;-85
2023/09/01 01:56:06;;;;;;;6.07;4.30;;;17.20;99.90;;;;;;5023320;28;20172;-84
2023/09/01 01:58:32;;;;;;;7.23;4.40;;;17.20;99.90;;;;;;4995054;28;20174;-84
2023/09/01 02:01:05;;;;;;;5.67;4.00;;;17.40;99.90;;;;;;5013698;28;20204;-87
2023/09/01 02:03:32;;;;;;;8.03;4.37;;;17.40;99.90;;;;;;4996258;28;20673;-87
2023/09/01 02:05:58;;;;;;;6.77;4.50;;;17.30;99.90;;;;;;4995800;28;20200;-87
2023/09/01 02:08:24;;;;;;;6.93;4.70;;;17.20;99.90;;;;;;4995485;28;20224;-88
2023/09/01 02:10:49;;;;;;;8.70;5.00;;;17.30;99.90;;;;;;5013832;28;20575;-88
2023/09/01 02:13:15;;;;;;;7.83;4.70;;;17.30;99.90;;;;;;4994135;28;20212;-87
2023/09/01 02:15:50;;;;;;;5.27;4.53;;;17.30;99.90;;;;;;4994240;28;20179;-87
2023/09/01 02:18:17;;;;;;;6.53;4.80;;;17.30;99.90;;;;;;4995703;28;20170;-86
2023/09/01 02:20:43;;;;;;;5.60;4.60;;;17.40;99.90;;;;;;4996821;28;20199;-87
2023/09/01 02:23:08;;;;;;;5.93;4.77;;;17.50;99.90;;;;;;5000565;28;20647;-87
2023/09/01 02:25:37;;;;;;;8.03;5.47;;;17.50;99.90;;;;;;5000160;28;20533;-86
2023/09/01 02:28:04;;;;;;;7.70;4.90;;;17.60;99.90;;;;;;5016978;28;20169;-87
2023/09/01 02:30:30;;;;;;;7.40;5.43;;;17.60;99.90;;;;;;5017958;28;20232;-86
2023/09/01 02:32:56;;;;;;;7.03;4.93;;;17.60;99.90;;;;;;5017249;28;20191;-87
2023/09/01 02:35:22;;;;;;;5.40;4.90;;;17.70;99.90;;;;;;5017160;28;20630;-87
2023/09/01 02:37:51;;;;;;;5.73;5.13;;;17.70;99.90;;;;;;5016545;28;20179;-86
2023/09/01 02:40:17;;;;;;;6.50;5.47;;;17.60;99.90;;;;;;4998800;28;20673;-88
2023/09/01 02:42:43;;;;;;;6.67;5.47;;;17.40;99.90;;;;;;5016266;28;20170;-86
2023/09/01 02:45:13;;;;;;;8.50;5.53;;;17.50;99.90;;;;;;5017071;28;20532;-87
2023/09/01 02:47:40;;;;;;;5.33;4.83;;;17.60;99.90;;;;;;4999895;28;20199;-87
2023/09/01 02:50:07;;;;;;;10.23;5.63;;;17.60;99.90;;;;;;4999823;28;20205;-87
2023/09/01 02:52:33;;;;;;;8.17;5.63;;;17.50;99.90;;;;;;4999128;28;20180;-89
2023/09/01 02:54:59;;;;;;;7.23;5.40;;;17.50;99.90;;;;;;5000048;28;20628;-86
2023/09/01 02:57:26;;;;;;;7.27;5.63;;;17.50;99.90;;;;;;5017100;28;20168;-89
2023/09/01 02:59:53;;;;;;;6.67;5.70;;;17.50;99.90;;;;;;4998711;28;20529;-87
2023/09/01 03:02:19;;;;;;;8.67;6.23;;;17.60;99.90;;;;;;5016972;28;20165;-87
2023/09/01 03:04:47;;;;;;;8.73;6.40;;;17.70;99.90;;;;;;5017224;28;20175;-87
2023/09/01 03:07:13;;;;;;;8.57;6.13;;;17.70;99.90;;;;;;4998460;28;20174;-88
2023/09/01 03:09:38;;;;;;;7.73;6.10;;;17.80;99.90;;;;;;5016363;28;20173;-88
2023/09/01 03:12:04;;;;;;;10.50;5.90;;;17.80;99.90;;;;;;4999690;28;20624;-89
2023/09/01 03:14:30;;;;;;;7.57;6.13;;;17.80;99.90;;;;;;4999897;28;20196;-88
2023/09/01 03:16:56;;;;;;;7.20;5.90;;;17.90;99.90;;;;;;4999485;28;20218;-88
2023/09/01 03:19:22;;;;;;;8.00;6.00;;;17.80;99.90;;;;;;4998027;28;20274;-85
2023/09/01 03:21:47;;;;;;;7.53;6.10;;;17.90;99.90;;;;;;4999077;28;20180;-88
2023/09/01 03:24:13;;;;;;;6.83;5.70;;;17.90;99.90;;;;;;4998889;28;20598;-88
2023/09/01 03:26:39;;;;;;;8.67;6.33;;;17.90;99.90;;;;;;5016113;28;20542;-87
2023/09/01 03:29:04;;;;;;;10.87;6.13;;;18.00;99.90;;;;;;5002628;28;20234;-87
2023/09/01 03:31:31;;;;;;;12.07;7.00;;;18.00;99.90;;;;;;5006859;28;20212;-86
2023/09/01 03:34:00;;;;;;;13.00;7.30;;;18.10;99.90;;;;;;5016413;28;20643;-88
2023/09/01 03:36:26;;;;;;;8.27;6.33;;;18.20;99.90;;;;;;4998165;28;20219;-84
2023/09/01 03:38:54;;;;;;;9.07;6.23;;;18.20;99.90;;;;;;5015282;28;20664;-88
2023/09/01 03:41:20;;;;;;;12.73;7.60;;;18.30;99.90;;;;;;5013737;28;20184;-85
2023/09/01 03:43:46;;;;;;;10.17;7.10;;;18.40;99.90;;;;;;5015418;28;20229;-85
2023/09/01 03:46:12;;;;;;;8.30;6.80;;;18.40;99.90;;;;;;4995536;28;20177;-85
2023/09/01 03:48:37;;;;;;;10.20;7.17;;;18.40;99.90;;;;;;4998233;28;20713;-84
2023/09/01 03:51:16;;;;;;;9.97;7.17;;;18.50;99.90;;;;;;4997577;28;20551;-87
2023/09/01 03:53:43;;;;;;;11.53;7.10;;;18.60;99.90;;;;;;5015483;28;20188;-87
2023/09/01 03:56:13;;;;;;;8.30;6.97;;;18.60;99.90;;;;;;5015385;28;20244;-85
2023/09/01 03:58:40;;;;;;;9.30;7.17;;;18.60;99.90;;;;;;4998346;28;20211;-84
2023/09/01 04:01:08;;;;;;;11.03;7.13;;;18.60;99.90;;;;;;4999378;28;20178;-87
2023/09/01 04:03:47;;;;;;;8.40;6.70;;;18.60;99.90;;;;;;4997607;28;20499;-86
2023/09/01 04:06:13;;;;;;;9.30;6.83;;;18.70;99.90;;;;;;5012021;28;20172;-88
2023/09/01 04:08:39;;;;;;;9.90;7.33;;;18.70;99.90;;;;;;5015801;28;20153;-87
2023/09/01 04:11:04;;;;;;;9.60;7.33;;;18.70;99.90;;;;;;5009753;28;20566;-84
2023/09/01 04:13:34;;;;;;;10.03;7.00;;;18.80;99.90;;;;;;5005878;28;20198;-83
2023/09/01 04:16:00;;;;;;;8.33;7.13;;;18.80;99.90;;;;;;5017586;28;20179;-84
2023/09/01 04:18:27;;;;;;;8.73;6.23;;;18.70;99.90;;;;;;5008443;28;20183;-83
2023/09/01 04:20:54;;;;;;;8.20;7.00;;;18.70;99.90;;;;;;5039208;28;20208;-84
2023/09/01 04:23:20;;;;;;;9.60;7.57;;;18.80;99.90;;;;;;5019623;28;20170;-85
2023/09/01 04:25:46;;;;;;;9.00;6.70;;;18.90;99.90;;;;;;5021982;28;20181;-86
2023/09/01 04:28:16;;;;;;;8.60;6.90;;;18.80;99.90;;;;;;5008494;28;20591;-87
2023/09/01 04:30:46;;;;;;;10.10;6.43;;;18.80;99.90;;;;;;5003023;28;20698;-88
2023/09/01 04:33:13;;;;;;;8.23;7.10;;;18.70;99.90;;;;;;4998431;28;20170;-88
2023/09/01 04:35:39;;;;;;;7.93;7.13;;;18.70;99.90;;;;;;5020437;28;20189;-86
2023/09/01 04:38:05;;;;;;;8.03;6.87;;;18.70;99.90;;;;;;5019859;28;20173;-85
2023/09/01 04:40:31;;;;;;;7.60;6.80;;;18.60;99.90;;;;;;5020310;28;20209;-86
2023/09/01 04:42:57;;;;;;;9.37;6.50;;;18.50;99.90;;;;;;5004676;28;20551;-82
2023/09/01 04:45:22;;;;;;;8.90;6.57;;;18.50;99.90;;;;;;4998346;28;20176;-82
2023/09/01 04:47:50;;;;;;;7.57;6.53;;;18.50;99.90;;;;;;4997411;28;20347;-85
2023/09/01 04:50:21;;;;;;;7.93;6.10;;;18.40;99.90;;;;;;4997316;28;20200;-83
2023/09/01 04:52:49;;;;;;;7.13;6.03;;;18.40;99.90;;;;;;5015024;28;20185;-83
2023/09/01 04:55:15;;;;;;;7.30;6.50;;;18.40;99.90;;;;;;4997009;28;20201;-86
2023/09/01 04:57:40;;;;;;;8.40;5.90;;;18.30;99.90;;;;;;4996780;28;20220;-86
2023/09/01 05:00:15;;;;;;;10.63;6.07;;;18.40;99.90;;;;;;4995912;28;20229;-84
2023/09/01 05:02:42;;;;;;;6.87;6.10;;;18.30;99.90;;;;;;5014467;28;20629;-84
2023/09/01 05:05:09;;;;;;;10.00;7.20;;;18.30;99.90;;;;;;5010595;28;20265;-84
2023/09/01 05:07:36;;;;;;;8.73;6.57;;;18.30;99.90;;;;;;4997794;28;20180;-82
2023/09/01 05:10:02;;;;;;;6.37;5.67;;;18.30;99.90;;;;;;5018217;28;20174;-84
2023/09/01 05:12:27;;;;;;;7.00;6.13;;;18.40;99.90;;;;;;5016227;28;20200;-81
2023/09/01 05:14:53;;;;;;;7.23;6.43;;;18.50;99.90;;;;;;4996934;28;20198;-86
2023/09/01 05:17:19;;;;;;;7.50;5.77;;;18.50;99.90;;;;;;4996753;28;20176;-84
2023/09/01 05:19:44;;;;;;;7.00;6.00;;;18.40;99.90;;;;;;4999674;28;20661;-83
2023/09/01 05:22:10;;;;;;;7.60;5.70;;;18.50;99.90;;;;;;4998690;28;20181;-84
2023/09/01 05:24:36;;;;;;;7.57;6.13;;;18.50;99.90;;;;;;4997567;28;20628;-84
2023/09/01 05:27:01;;;;;;;7.77;6.30;;;18.60;99.90;;;;;;4999496;28;20174;-84
2023/09/01 05:29:30;;;;;;;8.20;6.37;;;18.60;99.90;;;;;;4998112;28;20634;-84
2023/09/01 05:31:55;;;;;;;7.53;6.70;;;18.70;99.90;;;;;;5002690;28;20177;-87
2023/09/01 05:34:21;;;;;;;8.33;6.53;;;18.60;99.90;;;;;;4997079;28;20667;-86
2023/09/01 05:36:48;;;;;;;8.33;6.73;;;18.70;99.90;;;;;;4996069;28;20623;-87
2023/09/01 05:39:15;;;;;;;7.20;6.20;;;18.80;99.90;;;;;;5014656;28;20673;-87
2023/09/01 05:41:41;;;;;;;9.40;6.57;;;18.80;99.90;;;;;;5015129;28;20262;-87
2023/09/01 05:44:07;;;;;;;7.13;6.07;;;18.80;99.90;;;;;;4995966;28;20564;-87
2023/09/01 05:46:32;;;;;;;7.10;6.07;;;18.80;99.90;;;;;;5013429;28;20248;-87
2023/09/01 05:48:58;;;;;;;7.70;6.90;;;18.90;99.90;;;;;;4995994;28;20195;-86
2023/09/01 05:51:25;;;;;;;8.23;6.37;;;19.00;99.90;;;;;;4995824;28;20181;-86
2023/09/01 05:53:53;;;;;;;8.13;6.33;;;19.00;99.90;;;;;;4994798;28;20175;-87
2023/09/01 05:56:19;;;;;;;6.77;6.00;;;18.80;99.90;;;;;;4996316;28;20201;-84
2023/09/01 05:58:44;;;;;;;8.73;6.13;;;18.80;99.90;;;;;;4995631;28;20735;-87
2023/09/01 06:01:10;;;;;;;8.10;6.37;;;18.80;99.90;;;;;;4995445;28;20547;-85
2023/09/01 06:03:36;;;;;;;6.97;6.10;;;18.70;99.90;;;;;;4995790;28;20177;-84
2023/09/01 06:06:01;;;;;;;7.50;5.83;;;18.70;99.90;;;;;;4995339;28;20629;-87
2023/09/01 06:08:28;;;;;;;7.17;6.03;;;18.80;99.90;;;;;;4994524;28;20181;-88
2023/09/01 06:11:04;;;;;;;6.67;5.93;;;18.70;99.90;;;;;;4995194;28;20187;-87
2023/09/01 06:13:30;;;;;;;6.37;5.73;;;18.70;99.90;;;;;;4979622;28;20201;-87
2023/09/01 06:15:56;;;;;;;6.70;5.40;;;18.70;99.90;;;;;;4995391;28;20185;-87
2023/09/01 06:18:22;;;;;;;8.50;5.70;;;18.70;99.90;;;;;;4994332;28;20184;-85
2023/09/01 06:20:47;;;;;;;8.10;5.37;;;18.80;99.90;;;;;;4995446;28;20220;-86
2023/09/01 06:23:13;;;;;;;8.90;5.13;;;18.80;99.90;;;;;;4994886;28;20324;-86
2023/09/01 06:25:39;;;;;;;7.13;5.77;;;18.80;99.90;;;;;;4994897;28;20533;-85
2023/09/01 06:28:04;;;;;;;8.17;6.00;;;19.00;99.90;;;;;;4995501;28;20170;-86
2023/09/01 06:30:30;;;;;;;8.73;5.80;;;19.10;99.90;;;;;;4995237;28;20174;-85
2023/09/01 06:32:56;;;;;;;10.43;5.77;;;19.10;99.90;;;;;;4996387;28;20181;-85
2023/09/01 06:35:21;;;;;;;6.83;5.57;;;19.20;99.90;;;;;;5013010;28;20632;-85
2023/09/01 06:37:47;;;;;;;7.17;5.97;;;19.20;99.90;;;;;;4996965;28;20178;-87
2023/09/01 06:40:13;;;;;;;6.67;5.47;;;19.30;99.90;;;;;;5019006;28;20229;-86
2023/09/01 06:42:39;;;;;;;8.43;6.00;;;19.30;99.90;;;;;;4996232;28;20638;-86
2023/09/01 06:45:06;;;;;;;9.87;6.37;;;19.40;99.90;;;;;;5012650;28;20534;-85
2023/09/01 06:47:31;;;;;;;8.63;6.33;;;19.50;99.90;;;;;;4995754;28;20639;-86
2023/09/01 06:49:57;;;;;;;9.00;6.60;;;19.50;99.90;;;;;;4995863;28;20253;-86
2023/09/01 06:52:23;;;;;;;7.40;6.30;;;19.40;99.90;;;;;;4996378;28;20168;-86
2023/09/01 06:54:50;;;;;;;8.70;5.80;;;19.30;99.90;;;;;;4997166;28;20178;-86
2023/09/01 06:57:16;;;;;;;8.43;6.00;;;19.40;99.90;;;;;;4997076;28;20183;-86
2023/09/01 06:59:42;;;;;;;8.93;6.40;;;19.40;99.90;;;;;;4995418;28;20343;-84
2023/09/01 07:02:08;;;;;;;8.33;5.70;;;19.30;99.90;;;;;;4995065;28;20269;-85
2023/09/01 07:04:33;;;;;;;7.40;5.80;;;19.30;99.90;;;;;;5012344;28;20175;-85
2023/09/01 07:06:59;;;;;;;10.07;6.10;;;19.30;99.90;;;;;;4996152;28;20175;-85
2023/09/01 07:09:25;;;;;;;7.27;5.83;;;19.30;99.90;;;;;;4999261;28;20174;-85
2023/09/01 07:11:50;;;;;;;8.37;6.80;;;19.40;99.90;;;;;;4998688;28;20194;-87
2023/09/01 07:14:16;;;;;;;8.70;6.03;;;19.40;99.90;;;;;;4998328;28;20238;-87
2023/09/01 07:16:42;;;;;;;8.03;6.10;;;19.50;99.90;;;;;;4998944;28;20181;-83
2023/09/01 07:19:07;;;;;;;9.33;5.70;;;19.40;99.90;;;;;;4998525;28;20217;-86
2023/09/01 07:21:33;;;;;;;6.80;5.40;;;19.30;99.90;;;;;;4999803;28;20232;-85
2023/09/01 07:23:59;;;;;;;8.53;5.80;;;19.20;99.90;;;;;;5017288;28;20178;-87
2023/09/01 07:26:25;;;;;;;6.13;5.30;;;19.20;99.90;;;;;;4999943;28;20625;-86
2023/09/01 07:28:50;;;;;;;7.23;5.50;;;19.20;99.90;;;;;;4999155;28;20243;-85
2023/09/01 07:31:16;;;;;;;9.20;6.03;;;19.10;99.90;;;;;;4998110;28;20192;-85
2023/09/01 07:33:42;;;;;;;5.90;4.57;;;19.20;99.90;;;;;;4998997;28;20654;-87
2023/09/01 07:36:11;;;;;;;6.40;5.37;;;19.20;99.90;;;;;;5016625;28;20730;-86
2023/09/01 07:38:38;;;;;;;7.37;5.70;;;19.10;99.90;;;;;;4998879;28;20185;-85
2023/09/01 07:41:04;;;;;;;5.07;3.03;;;19.10;99.90;;;;;;4998645;28;20270;-84
2023/09/01 07:43:31;;;;;;;2.70;1.77;;;19.10;99.90;;;;;;5000416;28;20184;-85
2023/09/01 07:45:57;;;;;;;5.10;2.70;;;18.90;99.90;;;;;;4999180;28;20184;-86
2023/09/01 07:48:23;;;;;;;11.60;6.53;;;18.70;99.90;;;;;;4998051;28;20256;-86
2023/09/01 07:50:50;;;;;;;4.33;2.23;;;18.70;99.90;;;;;;5017115;28;20620;-86
2023/09/01 07:53:16;;;;;;;2.97;1.20;;;18.70;99.90;;;;;;4999356;28;20308;-86
2023/09/01 07:55:41;;;;;;;2.63;1.77;;;18.70;99.90;;;;;;5015043;28;20208;-86
2023/09/01 07:58:07;;;;;;;5.17;4.67;;;18.70;99.90;;;;;;5000080;28;20238;-87
2023/09/01 08:00:35;;;;;;;1.67;0.90;;;18.70;99.90;;;;;;4998069;28;20675;-87
2023/09/01 08:03:00;;;;;;;2.07;1.30;;;18.70;99.90;;;;;;4999731;28;20214;-88
2023/09/01 08:05:26;;;;;;;3.20;1.60;;;18.60;99.90;;;;;;5016494;28;20617;-87
2023/09/01 08:08:05;;;;;;;19.73;14.43;;;18.60;99.90;;;;;;4997810;28;20181;-88
2023/09/01 08:10:31;;;;;;;12.83;9.27;;;18.70;99.90;;;;;;4999143;28;20192;-86
2023/09/01 08:12:57;;;;;;;5.57;3.33;;;18.70;99.90;;;;;;5012085;28;20178;-85
2023/09/01 08:15:22;;;;;;;3.03;1.73;;;18.70;99.90;;;;;;4999014;28;20211;-85
2023/09/01 08:17:50;;;;;;;3.07;1.67;;;18.70;99.90;;;;;;4997961;28;20543;-83
2023/09/01 08:20:17;;;;;;;2.17;1.20;;;18.80;99.90;;;;;;4996677;28;20220;-86
2023/09/01 08:22:43;;;;;;;2.63;1.30;;;18.80;99.90;;;;;;4998213;28;20665;-84
2023/09/01 08:25:09;;;;;;;4.70;3.63;;;18.70;99.90;;;;;;4997375;28;20182;-85
2023/09/01 08:27:35;;;;;;;4.50;4.10;;;18.70;99.90;;;;;;4997674;28;20174;-86
2023/09/01 08:30:00;;;;;;;3.23;2.43;;;18.60;99.90;;;;;;5009629;28;20179;-85
2023/09/01 08:32:27;;;;;;;6.10;3.97;;;18.70;99.90;;;;;;5021327;28;20189;-85
2023/09/01 08:34:53;;;;;;;3.07;1.33;;;18.70;99.90;;;;;;5009046;28;20656;-87
2023/09/01 08:37:20;;;;;;;22.17;13.80;;;18.70;99.90;;;;;;5001481;28;20199;-86
2023/09/01 08:39:46;;;;;;;9.10;4.67;;;18.70;99.90;;;;;;5000710;28;20212;-86
2023/09/01 08:42:12;;;;;;;3.60;2.17;;;18.70;99.90;;;;;;4998332;28;20275;-85
2023/09/01 08:44:42;;;;;;;3.17;1.80;;;18.70;99.90;;;;;;4998690;28;20191;-84
2023/09/01 08:47:09;;;;;;;2.37;1.40;;;18.50;99.90;;;;;;4997998;28;20186;-85
2023/09/01 08:49:35;;;;;;;3.30;1.60;;;18.60;99.90;;;;;;4998079;28;20200;-84
2023/09/01 08:52:03;;;;;;;2.13;1.17;;;18.60;99.90;;;;;;4998719;28;20180;-85
2023/09/01 08:54:30;;;;;;;3.67;1.20;;;18.50;99.90;;;;;;4998209;28;20180;-84
2023/09/01 08:56:56;;;;;;;2.13;0.90;;;18.40;99.90;;;;;;5015623;28;20200;-84
2023/09/01 08:59:24;;;;;;;3.23;1.20;;;18.40;99.90;;;;;;5000401;28;20206;-85
2023/09/01 09:01:49;;;;;;;2.70;1.13;;;18.40;99.90;;;;;;5013795;28;20182;-83
2023/09/01 09:04:16;;;;;;;1.07;0.67;;;18.50;99.90;;;;;;5010371;28;20188;-84
2023/09/01 09:06:42;;;;;;;1.33;0.93;;;18.40;99.90;;;;;;5000396;28;20181;-85
2023/09/01 09:09:14;;;;;;;2.40;0.97;;;18.50;99.90;;;;;;5007108;28;20187;-85
2023/09/01 09:12:02;;;;;;;2.07;1.07;;;18.50;99.90;;;;;;5015229;28;20173;-83
2023/09/01 09:14:29;;;;;;;1.97;0.80;;;18.50;99.90;;;;;;5003682;28;20196;-86
2023/09/01 09:16:57;;;;;;;2.07;1.20;;;18.60;99.90;;;;;;4998783;28;20171;-87
2023/09/01 09:19:24;;;;;;;1.63;1.13;;;18.50;99.90;;;;;;4997754;28;20205;-86
2023/09/01 09:22:04;;;;;;;3.43;1.90;;;18.60;99.90;;;;;;4997832;28;20220;-86
2023/09/01 09:24:35;;;;;;;8.10;6.93;;;18.60;99.90;;;;;;4997421;28;20178;-87
2023/09/01 09:27:02;;;;;;;5.20;4.57;;;18.50;99.90;;;;;;4996581;28;20632;-87
2023/09/01 09:29:43;;;;;;;1.53;0.97;;;18.50;99.90;;;;;;5013365;28;20164;-88
2023/09/01 09:32:20;;;;;;;1.67;1.20;;;18.30;99.90;;;;;;5014106;28;20220;-86
2023/09/01 09:35:07;;;;;;;1.07;0.80;;;18.10;99.90;;;;;;4996944;28;20172;-87
2023/09/01 09:37:37;;;;;;;1.43;0.80;;;18.20;99.90;;;;;;5014013;28;20160;-86
2023/09/01 09:40:29;;;;;;;1.83;1.17;;;18.40;99.90;;;;;;4996941;28;20209;-87
2023/09/01 09:42:59;;;;;;;3.30;1.80;;;18.60;99.90;;;;;;4994321;28;20193;-86
2023/09/01 09:45:28;;;;;;;3.63;1.70;;;18.70;99.90;;;;;;5001101;28;20188;-86
2023/09/01 09:47:55;;;;;;;3.40;1.50;;;18.60;99.90;;;;;;5020214;28;20184;-87
2023/09/01 09:50:24;;;;;;;2.77;1.63;;;18.70;99.90;;;;;;5014380;28;20192;-84
2023/09/01 09:52:59;;;;;;;3.30;2.07;;;18.80;99.90;;;;;;4996992;28;20188;-87
2023/09/01 09:55:30;;;;;;;4.10;2.70;;;18.90;99.90;;;;;;5015015;28;20264;-85
2023/09/01 09:58:04;;;;;;;1.13;0.70;;;19.00;99.90;;;;;;4996192;28;20188;-87
2023/09/01 10:00:32;;;;;;;0.60;0.40;;;19.10;99.90;;;;;;5013920;28;20201;-87
2023/09/01 10:03:03;;;;;;;1.53;0.80;;;19.10;99.90;;;;;;4995453;28;20177;-87
2023/09/01 10:05:31;;;;;;;1.80;0.83;;;19.10;99.90;;;;;;4997318;28;20176;-87
2023/09/01 10:08:00;;;;;;;1.10;0.70;;;19.30;99.90;;;;;;4996210;28;20171;-87
2023/09/01 10:10:26;;;;;;;1.67;1.20;;;19.60;99.90;;;;;;4995567;28;20339;-87
2023/09/01 10:12:52;;;;;;;2.20;1.13;;;19.80;99.90;;;;;;4997189;28;20658;-87
2023/09/01 10:15:20;;;;;;;1.00;0.83;;;19.90;99.90;;;;;;5015573;28;20201;-86
2023/09/01 10:17:48;;;;;;;0.90;0.60;;;20.00;99.90;;;;;;4997572;28;20183;-87
2023/09/01 10:20:14;;;;;;;1.47;0.80;;;20.10;99.90;;;;;;4996237;28;20218;-87
2023/09/01 10:22:40;;;;;;;1.90;0.90;;;20.30;99.90;;;;;;4997352;28;20174;-87
2023/09/01 10:25:09;;;;;;;1.97;1.30;;;20.50;99.90;;;;;;5014146;28;20170;-88
2023/09/01 10:27:35;;;;;;;1.77;1.30;;;20.50;99.90;;;;;;4995946;28;20207;-87
2023/09/01 10:30:21;;;;;;;2.53;1.23;;;20.70;99.90;;;;;;4995141;28;20273;-87
2023/09/01 10:32:47;;;;;;;1.90;1.60;;;20.80;99.90;;;;;;5013853;28;20188;-87
2023/09/01 10:35:13;;;;;;;2.40;2.00;;;20.60;99.90;;;;;;4996328;28;20685;-86
2023/09/01 10:37:39;;;;;;;2.77;2.20;;;20.40;99.90;;;;;;4996541;28;20178;-85
2023/09/01 10:40:40;;;;;;;2.43;2.00;;;20.50;99.90;;;;;;4995046;28;20211;-87
2023/09/01 10:43:06;;;;;;;1.63;1.47;;;20.50;99.90;;;;;;4995734;28;20163;-87
2023/09/01 10:45:32;;;;;;;2.57;1.50;;;20.60;99.90;;;;;;4980240;28;20182;-87
2023/09/01 10:47:58;;;;;;;2.03;1.80;;;20.70;99.90;;;;;;5001079;28;20171;-86
2023/09/01 10:50:24;;;;;;;1.70;1.43;;;20.70;99.90;;;;;;4997708;28;20570;-87
2023/09/01 10:53:31;;;;;;;3.27;1.70;;;20.70;99.90;;;;;;4980789;28;20179;-87
2023/09/01 10:56:11;;;;;;;2.80;1.27;;;20.80;99.90;;;;;;4981912;28;20180;-87
2023/09/01 10:58:39;;;;;;;0.90;0.90;;;20.80;99.90;;;;;;4980231;28;20172;-87
2023/09/01 11:01:37;;;;;;;2.00;1.10;;;20.80;99.90;;;;;;4980224;28;20172;-87
2023/09/01 11:04:19;;;;;;;1.13;1.03;;;20.80;99.90;;;;;;4984154;28;20159;-87
2023/09/01 11:07:00;;;;;;;2.00;1.40;;;20.70;99.90;;;;;;4979975;28;20184;-87
2023/09/01 11:09:34;;;;;;;2.73;2.13;;;20.70;99.90;;;;;;4997337;28;20662;-87
2023/09/01 11:12:07;;;;;;;3.27;2.73;;;20.60;99.90;;;;;;4980331;28;20282;-86
2023/09/01 11:14:35;;;;;;;6.27;3.50;;;20.60;99.90;;;;;;4997958;28;20186;-85
2023/09/01 11:17:03;;;;;;;4.47;4.00;;;20.60;99.90;;;;;;4997510;28;20195;-86
2023/09/01 11:19:46;;;;;;;4.70;4.20;;;20.50;99.90;;;;;;5004620;28;20207;-85
2023/09/01 11:22:13;;;;;;;5.37;4.87;;;20.50;99.90;;;;;;4980800;28;20218;-85
2023/09/01 11:24:45;;;;;;;4.43;4.03;;;20.60;99.90;;;;;;4990976;28;20270;-86
2023/09/01 11:27:13;;;;;;;5.20;3.97;;;20.60;99.90;;;;;;5009053;28;20202;-86
2023/09/01 11:29:42;;;;;;;4.53;4.13;;;20.70;99.90;;;;;;5011012;28;20186;-84
2023/09/01 11:32:27;;;;;;;4.37;3.97;;;20.80;99.90;;;;;;4998840;28;20243;-85
2023/09/01 11:34:55;;;;;;;5.10;3.87;;;20.90;99.90;;;;;;5006139;28;20254;-85
2023/09/01 11:37:40;;;;;;;3.73;3.30;;;21.00;99.90;;;;;;4986907;28;20167;-87
2023/09/01 11:40:42;;;;;;;4.00;3.40;;;20.90;99.90;;;;;;4982594;28;20357;-86
2023/09/01 11:43:09;;;;;;;4.00;3.37;;;21.10;99.90;;;;;;4979882;28;20288;-86
2023/09/01 11:45:43;;;;;;;3.20;2.70;;;21.30;99.90;;;;;;4979276;28;20605;-84
2023/09/01 11:48:09;;;;;;;3.40;2.60;;;21.30;99.90;;;;;;4996271;28;20171;-86
2023/09/01 11:50:37;;;;;;;2.67;2.27;;;21.30;99.90;;;;;;4995891;28;20176;-86
2023/09/01 11:53:03;;;;;;;4.77;2.43;;;21.50;99.90;;;;;;4979187;28;20668;-86
2023/09/01 11:55:33;;;;;;;3.97;2.40;;;21.60;99.90;;;;;;4996853;28;20196;-87
2023/09/01 11:57:59;;;;;;;1.87;1.60;;;21.80;99.90;;;;;;4978742;28;20284;-86
2023/09/01 12:00:31;;;;;;;2.87;1.73;;;21.70;99.90;;;;;;4978428;28;20303;-85
2023/09/01 12:02:58;;;;;;;2.50;1.70;;;21.80;99.90;;;;;;4979455;28;20173;-86
2023/09/01 12:05:35;;;;;;;2.10;1.70;;;21.90;99.90;;;;;;4978599;28;20183;-87
2023/09/01 12:08:02;;;;;;;1.40;1.20;;;21.90;99.90;;;;;;4978839;28;20179;-87
2023/09/01 12:10:28;;;;;;;5.47;1.60;;;22.10;99.90;;;;;;4977896;28;20635;-85
2023/09/01 12:13:23;;;;;;;2.30;1.60;;;22.30;99.90;;;;;;4996205;28;20182;-85
2023/09/01 12:15:57;;;;;;;2.27;1.60;;;22.40;99.90;;;;;;4977301;28;20185;-87
2023/09/01 12:18:34;;;;;;;2.10;1.60;;;22.30;99.90;;;;;;4977890;28;20184;-87
2023/09/01 12:21:02;;;;;;;3.10;2.33;;;22.30;99.90;;;;;;4995597;28;20212;-86
2023/09/01 12:23:33;;;;;;;8.93;7.77;;;22.30;99.90;;;;;;4995937;28;20176;-85
2023/09/01 12:26:01;;;;;;;2.03;1.40;;;22.20;99.90;;;;;;4978673;28;20178;-87
2023/09/01 12:28:28;;;;;;;3.03;1.60;;;22.20;99.90;;;;;;4978485;28;20174;-87
2023/09/01 12:30:54;;;;;;;1.70;1.40;;;22.40;99.90;;;;;;4978012;28;20174;-85
2023/09/01 12:33:21;;;;;;;1.23;1.13;;;22.50;99.90;;;;;;4978172;28;20174;-85
2023/09/01 12:35:46;;;;;;;2.03;1.20;;;22.70;99.90;;;;;;4995132;28;20256;-87
2023/09/01 12:38:12;;;;;;;1.40;0.90;;;23.00;99.90;;;;;;4977845;28;20198;-86
2023/09/01 12:40:38;;;;;;;2.03;1.00;;;23.10;99.90;;;;;;4995765;28;20209;-84
2023/09/01 12:43:03;;;;;;;2.83;1.50;;;23.10;99.90;;;;;;4995665;28;20708;-87
2023/09/01 12:45:30;;;;;;;2.50;2.13;;;23.00;99.90;;;;;;5003855;28;20204;-84
2023/09/01 12:47:55;;;;;;;5.07;4.30;;;22.90;99.90;;;;;;5007266;28;20171;-84
2023/09/01 12:50:21;;;;;;;3.13;1.93;;;22.90;99.90;;;;;;5025198;28;20211;-85
2023/09/01 12:52:47;;;;;;;2.50;1.83;;;22.90;99.90;;;;;;5012421;28;20193;-83